sensor_id;sensor_type;location;lat;lon;timestamp;P1;durP1;ratioP1;P2;durP2;ratioP2
48951;SDS011;34758;42.148;24.744;2022-08-25T00:01:21;15.57;;;4.32;;
48951;SDS011;34758;42.148;24.744;2022-08-25T00:03:50;13.23;;;3.63;;
48951;SDS011;34758;42.148;24.744;2022-08-25T00:06:18;19.27;;;4.40;;
48951;SDS011;34758;42.148;24.744;2022-08-25T00:08:45;11.63;;;4.25;;
48951;SDS011;34758;42.148;24.744;2022-08-25T00:11:13;17.75;;;3.55;;
48951;SDS011;34758;42.148;24.744;2022-08-25T00:13:45;17.83;;;4.43;;
48951;SDS011;34758;42.148;24.744;2022-08-25T00:16:16;11.48;;;4.35;;
48951;SDS011;34758;42.148;24.744;2022-08-25T00:18:46;10.18;;;3.72;;
48951;SDS011;34758;42.148;24.744;2022-08-25T00:21:14;17.67;;;4.60;;
48951;SDS011;34758;42.148;24.744;2022-08-25T00:23:42;15.75;;;3.50;;
48951;SDS011;34758;42.148;24.744;2022-08-25T00:26:11;22.55;;;3.83;;
48951;SDS011;34758;42.148;24.744;2022-08-25T00:28:38;12.70;;;4.25;;
48951;SDS011;34758;42.148;24.744;2022-08-25T00:31:09;15.45;;;4.13;;
48951;SDS011;34758;42.148;24.744;2022-08-25T00:33:37;11.75;;;3.83;;
48951;SDS011;34758;42.148;24.744;2022-08-25T00:36:04;14.45;;;3.72;;
48951;SDS011;34758;42.148;24.744;2022-08-25T00:38:32;13.65;;;3.38;;
48951;SDS011;34758;42.148;24.744;2022-08-25T00:40:58;11.88;;;3.08;;
48951;SDS011;34758;42.148;24.744;2022-08-25T00:43:33;11.00;;;3.47;;
48951;SDS011;34758;42.148;24.744;2022-08-25T00:46:02;9.50;;;3.22;;
48951;SDS011;34758;42.148;24.744;2022-08-25T00:48:31;12.68;;;3.45;;
48951;SDS011;34758;42.148;24.744;2022-08-25T00:50:58;16.15;;;3.40;;
48951;SDS011;34758;42.148;24.744;2022-08-25T00:53:26;9.45;;;3.45;;
48951;SDS011;34758;42.148;24.744;2022-08-25T00:55:53;10.48;;;3.22;;
48951;SDS011;34758;42.148;24.744;2022-08-25T00:58:21;14.98;;;3.70;;
48951;SDS011;34758;42.148;24.744;2022-08-25T01:00:50;14.38;;;4.53;;
48951;SDS011;34758;42.148;24.744;2022-08-25T01:05:51;13.73;;;3.58;;
48951;SDS011;34758;42.148;24.744;2022-08-25T01:08:19;12.77;;;4.22;;
48951;SDS011;34758;42.148;24.744;2022-08-25T01:10:47;19.50;;;4.40;;
48951;SDS011;34758;42.148;24.744;2022-08-25T01:13:16;15.23;;;3.67;;
48951;SDS011;34758;42.148;24.744;2022-08-25T01:15:46;17.20;;;3.53;;
48951;SDS011;34758;42.148;24.744;2022-08-25T01:18:15;12.15;;;3.92;;
48951;SDS011;34758;42.148;24.744;2022-08-25T01:20:42;11.85;;;3.58;;
48951;SDS011;34758;42.148;24.744;2022-08-25T01:23:12;15.13;;;3.47;;
48951;SDS011;34758;42.148;24.744;2022-08-25T01:25:42;13.38;;;3.50;;
48951;SDS011;34758;42.148;24.744;2022-08-25T01:28:14;12.55;;;3.00;;
48951;SDS011;34758;42.148;24.744;2022-08-25T01:30:41;11.55;;;3.53;;
48951;SDS011;34758;42.148;24.744;2022-08-25T01:33:09;10.63;;;3.08;;
48951;SDS011;34758;42.148;24.744;2022-08-25T01:35:37;13.70;;;4.18;;
48951;SDS011;34758;42.148;24.744;2022-08-25T01:38:05;12.35;;;3.85;;
48951;SDS011;34758;42.148;24.744;2022-08-25T01:40:34;17.08;;;3.67;;
48951;SDS011;34758;42.148;24.744;2022-08-25T01:43:03;9.30;;;3.50;;
48951;SDS011;34758;42.148;24.744;2022-08-25T01:45:34;11.65;;;2.83;;
48951;SDS011;34758;42.148;24.744;2022-08-25T01:48:01;10.75;;;3.40;;
48951;SDS011;34758;42.148;24.744;2022-08-25T01:50:29;12.82;;;3.08;;
48951;SDS011;34758;42.148;24.744;2022-08-25T01:52:58;13.70;;;3.97;;
48951;SDS011;34758;42.148;24.744;2022-08-25T01:55:26;13.68;;;3.72;;
48951;SDS011;34758;42.148;24.744;2022-08-25T01:57:54;11.35;;;2.90;;
48951;SDS011;34758;42.148;24.744;2022-08-25T02:00:24;7.75;;;2.70;;
48951;SDS011;34758;42.148;24.744;2022-08-25T02:02:51;9.10;;;3.67;;
48951;SDS011;34758;42.148;24.744;2022-08-25T02:05:18;7.72;;;2.80;;
48951;SDS011;34758;42.148;24.744;2022-08-25T02:07:45;11.35;;;3.20;;
48951;SDS011;34758;42.148;24.744;2022-08-25T02:10:12;9.43;;;2.70;;
48951;SDS011;34758;42.148;24.744;2022-08-25T02:12:39;8.25;;;2.97;;
48951;SDS011;34758;42.148;24.744;2022-08-25T02:15:09;12.40;;;2.53;;
48951;SDS011;34758;42.148;24.744;2022-08-25T02:17:36;10.77;;;2.40;;
48951;SDS011;34758;42.148;24.744;2022-08-25T02:20:03;9.25;;;2.50;;
48951;SDS011;34758;42.148;24.744;2022-08-25T02:22:31;7.93;;;2.95;;
48951;SDS011;34758;42.148;24.744;2022-08-25T02:24:58;8.02;;;2.70;;
48951;SDS011;34758;42.148;24.744;2022-08-25T02:27:25;13.43;;;3.97;;
48951;SDS011;34758;42.148;24.744;2022-08-25T02:29:52;11.57;;;3.20;;
48951;SDS011;34758;42.148;24.744;2022-08-25T02:32:21;10.77;;;2.45;;
48951;SDS011;34758;42.148;24.744;2022-08-25T02:34:48;12.48;;;2.72;;
48951;SDS011;34758;42.148;24.744;2022-08-25T02:37:15;10.23;;;2.60;;
48951;SDS011;34758;42.148;24.744;2022-08-25T02:39:42;5.72;;;2.42;;
48951;SDS011;34758;42.148;24.744;2022-08-25T02:42:09;11.80;;;2.63;;
48951;SDS011;34758;42.148;24.744;2022-08-25T02:44:36;8.18;;;2.47;;
48951;SDS011;34758;42.148;24.744;2022-08-25T02:47:03;11.45;;;2.55;;
48951;SDS011;34758;42.148;24.744;2022-08-25T02:49:31;11.32;;;2.80;;
48951;SDS011;34758;42.148;24.744;2022-08-25T02:51:59;7.50;;;2.55;;
48951;SDS011;34758;42.148;24.744;2022-08-25T02:54:26;10.77;;;2.47;;
48951;SDS011;34758;42.148;24.744;2022-08-25T02:56:53;7.43;;;2.30;;
48951;SDS011;34758;42.148;24.744;2022-08-25T02:59:20;9.45;;;2.70;;
48951;SDS011;34758;42.148;24.744;2022-08-25T03:01:48;9.20;;;2.30;;
48951;SDS011;34758;42.148;24.744;2022-08-25T03:04:15;8.55;;;2.45;;
48951;SDS011;34758;42.148;24.744;2022-08-25T03:06:43;6.90;;;2.17;;
48951;SDS011;34758;42.148;24.744;2022-08-25T03:09:10;11.90;;;2.55;;
48951;SDS011;34758;42.148;24.744;2022-08-25T03:11:38;7.85;;;1.92;;
48951;SDS011;34758;42.148;24.744;2022-08-25T03:14:05;6.32;;;2.17;;
48951;SDS011;34758;42.148;24.744;2022-08-25T03:16:32;7.00;;;1.80;;
48951;SDS011;34758;42.148;24.744;2022-08-25T03:19:00;10.20;;;2.00;;
48951;SDS011;34758;42.148;24.744;2022-08-25T03:21:27;7.20;;;1.70;;
48951;SDS011;34758;42.148;24.744;2022-08-25T03:23:56;6.40;;;1.95;;
48951;SDS011;34758;42.148;24.744;2022-08-25T03:26:24;8.38;;;2.90;;
48951;SDS011;34758;42.148;24.744;2022-08-25T03:29:09;8.18;;;1.77;;
48951;SDS011;34758;42.148;24.744;2022-08-25T03:31:36;8.93;;;1.90;;
48951;SDS011;34758;42.148;24.744;2022-08-25T03:34:03;5.80;;;1.83;;
48951;SDS011;34758;42.148;24.744;2022-08-25T03:36:30;9.20;;;1.67;;
48951;SDS011;34758;42.148;24.744;2022-08-25T03:38:59;5.32;;;1.60;;
48951;SDS011;34758;42.148;24.744;2022-08-25T03:41:28;6.38;;;1.77;;
48951;SDS011;34758;42.148;24.744;2022-08-25T03:43:57;6.95;;;1.80;;
48951;SDS011;34758;42.148;24.744;2022-08-25T03:46:26;4.82;;;1.45;;
48951;SDS011;34758;42.148;24.744;2022-08-25T03:48:54;3.97;;;1.50;;
48951;SDS011;34758;42.148;24.744;2022-08-25T03:51:22;8.85;;;1.95;;
48951;SDS011;34758;42.148;24.744;2022-08-25T03:53:52;6.88;;;2.15;;
48951;SDS011;34758;42.148;24.744;2022-08-25T03:56:21;7.15;;;1.73;;
48951;SDS011;34758;42.148;24.744;2022-08-25T03:58:48;5.50;;;1.40;;
48951;SDS011;34758;42.148;24.744;2022-08-25T04:01:15;7.53;;;1.67;;
48951;SDS011;34758;42.148;24.744;2022-08-25T04:03:42;6.03;;;1.85;;
48951;SDS011;34758;42.148;24.744;2022-08-25T04:06:10;5.25;;;1.15;;
48951;SDS011;34758;42.148;24.744;2022-08-25T04:08:37;7.38;;;1.50;;
48951;SDS011;34758;42.148;24.744;2022-08-25T04:11:04;3.67;;;1.50;;
48951;SDS011;34758;42.148;24.744;2022-08-25T04:13:33;7.43;;;1.70;;
48951;SDS011;34758;42.148;24.744;2022-08-25T04:16:01;5.45;;;1.50;;
48951;SDS011;34758;42.148;24.744;2022-08-25T04:18:29;6.03;;;1.50;;
48951;SDS011;34758;42.148;24.744;2022-08-25T04:21:01;5.53;;;1.65;;
48951;SDS011;34758;42.148;24.744;2022-08-25T04:23:29;5.37;;;1.50;;
48951;SDS011;34758;42.148;24.744;2022-08-25T04:25:56;4.07;;;1.40;;
48951;SDS011;34758;42.148;24.744;2022-08-25T04:28:23;7.22;;;1.67;;
48951;SDS011;34758;42.148;24.744;2022-08-25T04:30:51;5.43;;;1.65;;
48951;SDS011;34758;42.148;24.744;2022-08-25T04:33:18;7.00;;;1.65;;
48951;SDS011;34758;42.148;24.744;2022-08-25T04:35:46;3.72;;;1.10;;
48951;SDS011;34758;42.148;24.744;2022-08-25T04:38:13;6.90;;;1.65;;
48951;SDS011;34758;42.148;24.744;2022-08-25T04:40:41;5.30;;;1.30;;
48951;SDS011;34758;42.148;24.744;2022-08-25T04:43:08;7.88;;;1.33;;
48951;SDS011;34758;42.148;24.744;2022-08-25T04:45:36;11.60;;;2.20;;
48951;SDS011;34758;42.148;24.744;2022-08-25T04:48:05;6.47;;;1.42;;
48951;SDS011;34758;42.148;24.744;2022-08-25T04:50:32;4.70;;;1.20;;
48951;SDS011;34758;42.148;24.744;2022-08-25T04:53:00;4.55;;;1.67;;
48951;SDS011;34758;42.148;24.744;2022-08-25T04:55:27;3.72;;;1.50;;
48951;SDS011;34758;42.148;24.744;2022-08-25T04:57:54;6.57;;;1.88;;
48951;SDS011;34758;42.148;24.744;2022-08-25T05:00:21;6.68;;;2.03;;
48951;SDS011;34758;42.148;24.744;2022-08-25T05:02:48;9.15;;;1.92;;
48951;SDS011;34758;42.148;24.744;2022-08-25T05:05:17;5.00;;;1.50;;
48951;SDS011;34758;42.148;24.744;2022-08-25T05:07:44;6.75;;;1.83;;
48951;SDS011;34758;42.148;24.744;2022-08-25T05:10:12;4.60;;;1.45;;
48951;SDS011;34758;42.148;24.744;2022-08-25T05:12:39;7.28;;;2.00;;
48951;SDS011;34758;42.148;24.744;2022-08-25T05:15:07;6.00;;;2.10;;
48951;SDS011;34758;42.148;24.744;2022-08-25T05:17:48;4.68;;;1.70;;
48951;SDS011;34758;42.148;24.744;2022-08-25T05:20:15;5.85;;;2.72;;
48951;SDS011;34758;42.148;24.744;2022-08-25T05:22:45;5.57;;;2.08;;
48951;SDS011;34758;42.148;24.744;2022-08-25T05:25:13;5.20;;;1.55;;
48951;SDS011;34758;42.148;24.744;2022-08-25T05:27:40;7.47;;;1.85;;
48951;SDS011;34758;42.148;24.744;2022-08-25T05:30:08;7.65;;;1.92;;
48951;SDS011;34758;42.148;24.744;2022-08-25T05:32:36;9.25;;;1.80;;
48951;SDS011;34758;42.148;24.744;2022-08-25T05:35:04;8.23;;;2.83;;
48951;SDS011;34758;42.148;24.744;2022-08-25T05:37:32;7.47;;;2.00;;
48951;SDS011;34758;42.148;24.744;2022-08-25T05:40:01;7.18;;;2.55;;
48951;SDS011;34758;42.148;24.744;2022-08-25T05:42:28;9.10;;;2.40;;
48951;SDS011;34758;42.148;24.744;2022-08-25T05:44:55;6.60;;;2.50;;
48951;SDS011;34758;42.148;24.744;2022-08-25T05:47:22;7.18;;;2.97;;
48951;SDS011;34758;42.148;24.744;2022-08-25T05:49:49;7.05;;;3.00;;
48951;SDS011;34758;42.148;24.744;2022-08-25T05:52:16;9.57;;;3.08;;
48951;SDS011;34758;42.148;24.744;2022-08-25T05:54:44;8.38;;;3.15;;
48951;SDS011;34758;42.148;24.744;2022-08-25T05:57:13;8.07;;;3.13;;
48951;SDS011;34758;42.148;24.744;2022-08-25T05:59:40;15.43;;;3.85;;
48951;SDS011;34758;42.148;24.744;2022-08-25T06:02:07;10.00;;;3.78;;
48951;SDS011;34758;42.148;24.744;2022-08-25T06:04:52;9.43;;;3.92;;
48951;SDS011;34758;42.148;24.744;2022-08-25T06:07:19;12.73;;;4.70;;
48951;SDS011;34758;42.148;24.744;2022-08-25T06:09:47;12.35;;;4.57;;
48951;SDS011;34758;42.148;24.744;2022-08-25T06:12:15;14.75;;;5.15;;
48951;SDS011;34758;42.148;24.744;2022-08-25T06:17:12;15.55;;;4.80;;
48951;SDS011;34758;42.148;24.744;2022-08-25T06:19:39;11.00;;;4.40;;
48951;SDS011;34758;42.148;24.744;2022-08-25T06:22:06;11.48;;;4.28;;
48951;SDS011;34758;42.148;24.744;2022-08-25T06:24:33;10.57;;;4.65;;
48951;SDS011;34758;42.148;24.744;2022-08-25T06:27:01;12.07;;;5.20;;
48951;SDS011;34758;42.148;24.744;2022-08-25T06:29:29;9.32;;;4.38;;
48951;SDS011;34758;42.148;24.744;2022-08-25T06:31:58;13.80;;;4.80;;
48951;SDS011;34758;42.148;24.744;2022-08-25T06:34:25;9.52;;;4.70;;
48951;SDS011;34758;42.148;24.744;2022-08-25T06:36:52;15.35;;;4.93;;
48951;SDS011;34758;42.148;24.744;2022-08-25T06:39:20;11.02;;;4.95;;
48951;SDS011;34758;42.148;24.744;2022-08-25T06:41:51;12.00;;;5.18;;
48951;SDS011;34758;42.148;24.744;2022-08-25T06:44:20;13.30;;;5.80;;
48951;SDS011;34758;42.148;24.744;2022-08-25T06:46:48;14.05;;;4.90;;
48951;SDS011;34758;42.148;24.744;2022-08-25T06:49:15;15.05;;;5.00;;
48951;SDS011;34758;42.148;24.744;2022-08-25T06:51:43;14.23;;;4.80;;
48951;SDS011;34758;42.148;24.744;2022-08-25T06:54:10;12.63;;;4.93;;
48951;SDS011;34758;42.148;24.744;2022-08-25T06:56:38;10.80;;;5.10;;
48951;SDS011;34758;42.148;24.744;2022-08-25T06:59:06;18.02;;;6.18;;
48951;SDS011;34758;42.148;24.744;2022-08-25T07:01:34;14.93;;;5.55;;
48951;SDS011;34758;42.148;24.744;2022-08-25T07:04:03;15.27;;;5.85;;
48951;SDS011;34758;42.148;24.744;2022-08-25T07:06:32;14.95;;;6.43;;
48951;SDS011;34758;42.148;24.744;2022-08-25T07:09:00;14.15;;;5.15;;
48951;SDS011;34758;42.148;24.744;2022-08-25T07:11:28;17.80;;;5.90;;
48951;SDS011;34758;42.148;24.744;2022-08-25T07:13:59;10.95;;;5.57;;
48951;SDS011;34758;42.148;24.744;2022-08-25T07:16:27;16.45;;;5.97;;
48951;SDS011;34758;42.148;24.744;2022-08-25T07:18:56;23.48;;;6.38;;
48951;SDS011;34758;42.148;24.744;2022-08-25T07:21:25;17.65;;;7.35;;
48951;SDS011;34758;42.148;24.744;2022-08-25T07:23:54;20.90;;;6.45;;
48951;SDS011;34758;42.148;24.744;2022-08-25T07:26:24;17.98;;;8.02;;
48951;SDS011;34758;42.148;24.744;2022-08-25T07:28:53;19.40;;;6.55;;
48951;SDS011;34758;42.148;24.744;2022-08-25T07:31:20;19.70;;;6.43;;
48951;SDS011;34758;42.148;24.744;2022-08-25T07:33:47;17.35;;;6.53;;
48951;SDS011;34758;42.148;24.744;2022-08-25T07:36:33;21.73;;;7.72;;
48951;SDS011;34758;42.148;24.744;2022-08-25T07:39:00;18.08;;;6.97;;
48951;SDS011;34758;42.148;24.744;2022-08-25T07:41:29;13.35;;;6.70;;
48951;SDS011;34758;42.148;24.744;2022-08-25T07:43:57;20.98;;;6.95;;
48951;SDS011;34758;42.148;24.744;2022-08-25T07:46:24;20.48;;;7.10;;
48951;SDS011;34758;42.148;24.744;2022-08-25T07:48:51;17.45;;;6.78;;
48951;SDS011;34758;42.148;24.744;2022-08-25T07:51:18;16.13;;;6.82;;
48951;SDS011;34758;42.148;24.744;2022-08-25T07:53:46;20.17;;;6.65;;
48951;SDS011;34758;42.148;24.744;2022-08-25T07:56:14;15.20;;;6.20;;
48951;SDS011;34758;42.148;24.744;2022-08-25T07:58:42;19.85;;;6.63;;
48951;SDS011;34758;42.148;24.744;2022-08-25T08:01:12;19.85;;;7.60;;
48951;SDS011;34758;42.148;24.744;2022-08-25T08:03:39;17.42;;;6.40;;
48951;SDS011;34758;42.148;24.744;2022-08-25T08:06:07;19.40;;;7.85;;
48951;SDS011;34758;42.148;24.744;2022-08-25T08:08:36;17.23;;;7.55;;
48951;SDS011;34758;42.148;24.744;2022-08-25T08:11:04;17.70;;;7.45;;
48951;SDS011;34758;42.148;24.744;2022-08-25T08:13:32;16.83;;;7.07;;
48951;SDS011;34758;42.148;24.744;2022-08-25T08:15:59;22.92;;;6.95;;
48951;SDS011;34758;42.148;24.744;2022-08-25T08:18:26;22.17;;;6.78;;
48951;SDS011;34758;42.148;24.744;2022-08-25T08:20:53;22.05;;;6.60;;
48951;SDS011;34758;42.148;24.744;2022-08-25T08:23:20;21.05;;;7.38;;
48951;SDS011;34758;42.148;24.744;2022-08-25T08:25:52;18.42;;;7.45;;
48951;SDS011;34758;42.148;24.744;2022-08-25T08:28:22;15.73;;;6.13;;
48951;SDS011;34758;42.148;24.744;2022-08-25T08:30:52;21.58;;;8.05;;
48951;SDS011;34758;42.148;24.744;2022-08-25T08:33:20;20.42;;;7.15;;
48951;SDS011;34758;42.148;24.744;2022-08-25T08:35:54;19.65;;;6.97;;
48951;SDS011;34758;42.148;24.744;2022-08-25T08:38:21;23.83;;;7.60;;
48951;SDS011;34758;42.148;24.744;2022-08-25T08:40:52;22.17;;;7.25;;
48951;SDS011;34758;42.148;24.744;2022-08-25T08:43:40;19.50;;;6.32;;
48951;SDS011;34758;42.148;24.744;2022-08-25T08:46:08;19.95;;;6.28;;
48951;SDS011;34758;42.148;24.744;2022-08-25T08:51:22;23.73;;;6.90;;
48951;SDS011;34758;42.148;24.744;2022-08-25T08:53:53;29.30;;;11.07;;
48951;SDS011;34758;42.148;24.744;2022-08-25T08:56:22;20.27;;;6.97;;
48951;SDS011;34758;42.148;24.744;2022-08-25T08:58:54;17.15;;;6.53;;
48951;SDS011;34758;42.148;24.744;2022-08-25T09:01:23;25.58;;;7.15;;
48951;SDS011;34758;42.148;24.744;2022-08-25T09:03:53;24.10;;;6.40;;
48951;SDS011;34758;42.148;24.744;2022-08-25T09:06:26;19.65;;;5.35;;
48951;SDS011;34758;42.148;24.744;2022-08-25T09:08:57;26.23;;;7.82;;
48951;SDS011;34758;42.148;24.744;2022-08-25T09:11:27;29.73;;;7.28;;
48951;SDS011;34758;42.148;24.744;2022-08-25T09:16:32;22.35;;;6.13;;
48951;SDS011;34758;42.148;24.744;2022-08-25T09:19:22;26.33;;;6.20;;
48951;SDS011;34758;42.148;24.744;2022-08-25T09:21:59;31.35;;;6.13;;
48951;SDS011;34758;42.148;24.744;2022-08-25T09:24:39;31.25;;;6.63;;
48951;SDS011;34758;42.148;24.744;2022-08-25T09:27:13;20.30;;;6.20;;
48951;SDS011;34758;42.148;24.744;2022-08-25T09:29:51;28.88;;;6.50;;
48951;SDS011;34758;42.148;24.744;2022-08-25T09:32:31;29.10;;;6.15;;
48951;SDS011;34758;42.148;24.744;2022-08-25T09:35:00;25.05;;;5.78;;
48951;SDS011;34758;42.148;24.744;2022-08-25T09:37:28;31.35;;;6.70;;
48951;SDS011;34758;42.148;24.744;2022-08-25T09:39:55;28.23;;;5.65;;
48951;SDS011;34758;42.148;24.744;2022-08-25T09:42:22;18.02;;;4.97;;
48951;SDS011;34758;42.148;24.744;2022-08-25T09:45:15;18.50;;;5.75;;
48951;SDS011;34758;42.148;24.744;2022-08-25T09:47:44;24.30;;;5.60;;
48951;SDS011;34758;42.148;24.744;2022-08-25T09:50:16;28.13;;;5.63;;
48951;SDS011;34758;42.148;24.744;2022-08-25T09:52:44;21.20;;;5.45;;
48951;SDS011;34758;42.148;24.744;2022-08-25T09:55:22;27.80;;;6.25;;
48951;SDS011;34758;42.148;24.744;2022-08-25T09:57:52;29.55;;;5.40;;
48951;SDS011;34758;42.148;24.744;2022-08-25T10:00:24;19.73;;;6.20;;
48951;SDS011;34758;42.148;24.744;2022-08-25T10:03:04;19.25;;;5.30;;
48951;SDS011;34758;42.148;24.744;2022-08-25T10:05:34;24.65;;;6.18;;
48951;SDS011;34758;42.148;24.744;2022-08-25T10:08:09;28.60;;;5.60;;
48951;SDS011;34758;42.148;24.744;2022-08-25T10:10:41;23.95;;;5.78;;
48951;SDS011;34758;42.148;24.744;2022-08-25T10:13:13;20.83;;;5.28;;
48951;SDS011;34758;42.148;24.744;2022-08-25T10:15:45;21.13;;;5.13;;
48951;SDS011;34758;42.148;24.744;2022-08-25T10:18:18;27.90;;;6.00;;
48951;SDS011;34758;42.148;24.744;2022-08-25T10:21:02;20.35;;;4.78;;
48951;SDS011;34758;42.148;24.744;2022-08-25T10:23:35;21.63;;;6.38;;
48951;SDS011;34758;42.148;24.744;2022-08-25T10:26:08;22.88;;;5.90;;
48951;SDS011;34758;42.148;24.744;2022-08-25T10:28:40;23.58;;;5.50;;
48951;SDS011;34758;42.148;24.744;2022-08-25T10:31:15;28.25;;;5.50;;
48951;SDS011;34758;42.148;24.744;2022-08-25T10:33:48;18.50;;;5.18;;
48951;SDS011;34758;42.148;24.744;2022-08-25T10:36:25;22.08;;;5.53;;
48951;SDS011;34758;42.148;24.744;2022-08-25T10:38:57;24.15;;;4.65;;
48951;SDS011;34758;42.148;24.744;2022-08-25T10:41:31;27.10;;;5.15;;
48951;SDS011;34758;42.148;24.744;2022-08-25T10:44:06;21.52;;;4.68;;
48951;SDS011;34758;42.148;24.744;2022-08-25T10:47:02;30.52;;;5.40;;
48951;SDS011;34758;42.148;24.744;2022-08-25T10:49:48;24.30;;;4.50;;
48951;SDS011;34758;42.148;24.744;2022-08-25T10:52:18;30.25;;;4.93;;
48951;SDS011;34758;42.148;24.744;2022-08-25T10:54:52;25.63;;;4.63;;
48951;SDS011;34758;42.148;24.744;2022-08-25T10:57:26;31.55;;;5.43;;
48951;SDS011;34758;42.148;24.744;2022-08-25T10:59:59;28.90;;;5.43;;
48951;SDS011;34758;42.148;24.744;2022-08-25T11:05:29;27.17;;;4.80;;
48951;SDS011;34758;42.148;24.744;2022-08-25T11:08:03;19.10;;;4.82;;
48951;SDS011;34758;42.148;24.744;2022-08-25T11:10:35;32.58;;;5.72;;
48951;SDS011;34758;42.148;24.744;2022-08-25T11:13:07;16.80;;;4.03;;
48951;SDS011;34758;42.148;24.744;2022-08-25T11:15:41;27.63;;;6.68;;
48951;SDS011;34758;42.148;24.744;2022-08-25T11:18:13;21.90;;;4.53;;
48951;SDS011;34758;42.148;24.744;2022-08-25T11:20:42;24.92;;;4.88;;
48951;SDS011;34758;42.148;24.744;2022-08-25T11:23:13;28.60;;;5.07;;
48951;SDS011;34758;42.148;24.744;2022-08-25T11:25:45;21.67;;;5.13;;
48951;SDS011;34758;42.148;24.744;2022-08-25T11:28:14;29.15;;;5.13;;
48951;SDS011;34758;42.148;24.744;2022-08-25T11:30:46;22.23;;;4.60;;
48951;SDS011;34758;42.148;24.744;2022-08-25T11:33:15;29.38;;;4.88;;
48951;SDS011;34758;42.148;24.744;2022-08-25T11:35:46;21.65;;;5.50;;
48951;SDS011;34758;42.148;24.744;2022-08-25T11:38:21;16.42;;;4.85;;
48951;SDS011;34758;42.148;24.744;2022-08-25T11:40:59;21.53;;;4.87;;
48951;SDS011;34758;42.148;24.744;2022-08-25T11:43:36;24.10;;;4.20;;
48951;SDS011;34758;42.148;24.744;2022-08-25T11:46:15;22.25;;;4.63;;
48951;SDS011;34758;42.148;24.744;2022-08-25T11:48:53;24.02;;;4.50;;
48951;SDS011;34758;42.148;24.744;2022-08-25T11:51:27;21.08;;;4.07;;
48951;SDS011;34758;42.148;24.744;2022-08-25T11:54:13;21.10;;;4.93;;
48951;SDS011;34758;42.148;24.744;2022-08-25T11:56:49;20.45;;;4.43;;
48951;SDS011;34758;42.148;24.744;2022-08-25T12:02:27;22.65;;;3.85;;
48951;SDS011;34758;42.148;24.744;2022-08-25T12:04:59;18.73;;;5.63;;
48951;SDS011;34758;42.148;24.744;2022-08-25T12:07:28;20.83;;;5.03;;
48951;SDS011;34758;42.148;24.744;2022-08-25T12:10:12;25.48;;;4.22;;
48951;SDS011;34758;42.148;24.744;2022-08-25T12:12:56;26.45;;;4.90;;
48951;SDS011;34758;42.148;24.744;2022-08-25T12:15:26;17.08;;;4.05;;
48951;SDS011;34758;42.148;24.744;2022-08-25T12:18:08;28.58;;;5.50;;
48951;SDS011;34758;42.148;24.744;2022-08-25T12:23:38;25.95;;;4.30;;
48951;SDS011;34758;42.148;24.744;2022-08-25T12:26:07;18.20;;;4.03;;
48951;SDS011;34758;42.148;24.744;2022-08-25T12:28:40;25.98;;;5.15;;
48951;SDS011;34758;42.148;24.744;2022-08-25T12:31:18;26.55;;;4.60;;
48951;SDS011;34758;42.148;24.744;2022-08-25T12:33:53;27.83;;;5.05;;
48951;SDS011;34758;42.148;24.744;2022-08-25T12:36:29;21.23;;;4.43;;
48951;SDS011;34758;42.148;24.744;2022-08-25T12:39:07;22.88;;;4.40;;
48951;SDS011;34758;42.148;24.744;2022-08-25T12:41:35;21.50;;;4.45;;
48951;SDS011;34758;42.148;24.744;2022-08-25T12:44:32;18.38;;;4.22;;
48951;SDS011;34758;42.148;24.744;2022-08-25T12:47:10;24.17;;;3.72;;
48951;SDS011;34758;42.148;24.744;2022-08-25T12:52:56;22.27;;;4.30;;
48951;SDS011;34758;42.148;24.744;2022-08-25T12:55:29;19.90;;;4.72;;
48951;SDS011;34758;42.148;24.744;2022-08-25T12:57:56;25.25;;;4.63;;
48951;SDS011;34758;42.148;24.744;2022-08-25T13:00:25;24.13;;;4.65;;
48951;SDS011;34758;42.148;24.744;2022-08-25T13:03:03;19.65;;;4.28;;
48951;SDS011;34758;42.148;24.744;2022-08-25T13:09:04;25.33;;;4.57;;
48951;SDS011;34758;42.148;24.744;2022-08-25T13:11:54;21.50;;;4.70;;
48951;SDS011;34758;42.148;24.744;2022-08-25T13:14:24;22.50;;;3.97;;
48951;SDS011;34758;42.148;24.744;2022-08-25T13:16:56;29.00;;;4.40;;
48951;SDS011;34758;42.148;24.744;2022-08-25T13:19:24;23.33;;;4.20;;
48951;SDS011;34758;42.148;24.744;2022-08-25T13:21:53;20.75;;;4.57;;
48951;SDS011;34758;42.148;24.744;2022-08-25T13:24:23;18.77;;;4.10;;
48951;SDS011;34758;42.148;24.744;2022-08-25T13:26:51;30.52;;;4.88;;
48951;SDS011;34758;42.148;24.744;2022-08-25T13:29:21;26.35;;;4.50;;
48951;SDS011;34758;42.148;24.744;2022-08-25T13:31:50;19.23;;;4.47;;
48951;SDS011;34758;42.148;24.744;2022-08-25T13:34:21;20.67;;;4.55;;
48951;SDS011;34758;42.148;24.744;2022-08-25T13:36:50;20.15;;;3.65;;
48951;SDS011;34758;42.148;24.744;2022-08-25T13:39:36;13.77;;;2.75;;
48951;SDS011;34758;42.148;24.744;2022-08-25T13:42:05;15.07;;;3.17;;
48951;SDS011;34758;42.148;24.744;2022-08-25T13:44:34;22.55;;;3.70;;
48951;SDS011;34758;42.148;24.744;2022-08-25T13:47:07;14.65;;;3.63;;
48951;SDS011;34758;42.148;24.744;2022-08-25T13:49:35;13.30;;;3.17;;
48951;SDS011;34758;42.148;24.744;2022-08-25T13:52:02;15.40;;;3.28;;
48951;SDS011;34758;42.148;24.744;2022-08-25T13:54:34;15.88;;;3.17;;
48951;SDS011;34758;42.148;24.744;2022-08-25T13:57:05;17.00;;;3.28;;
48951;SDS011;34758;42.148;24.744;2022-08-25T13:59:34;17.23;;;3.22;;
48951;SDS011;34758;42.148;24.744;2022-08-25T14:04:32;20.02;;;5.63;;
48951;SDS011;34758;42.148;24.744;2022-08-25T14:07:14;14.10;;;3.67;;
48951;SDS011;34758;42.148;24.744;2022-08-25T14:09:54;16.63;;;4.00;;
48951;SDS011;34758;42.148;24.744;2022-08-25T14:12:31;14.45;;;4.05;;
48951;SDS011;34758;42.148;24.744;2022-08-25T14:15:03;17.67;;;4.15;;
48951;SDS011;34758;42.148;24.744;2022-08-25T14:17:32;19.05;;;4.05;;
48951;SDS011;34758;42.148;24.744;2022-08-25T14:19:59;14.00;;;3.60;;
48951;SDS011;34758;42.148;24.744;2022-08-25T14:22:26;17.55;;;3.83;;
48951;SDS011;34758;42.148;24.744;2022-08-25T14:24:54;22.75;;;3.75;;
48951;SDS011;34758;42.148;24.744;2022-08-25T14:27:21;14.13;;;3.50;;
48951;SDS011;34758;42.148;24.744;2022-08-25T14:29:49;19.88;;;4.63;;
48951;SDS011;34758;42.148;24.744;2022-08-25T14:32:16;18.92;;;3.83;;
48951;SDS011;34758;42.148;24.744;2022-08-25T14:34:43;21.83;;;3.67;;
48951;SDS011;34758;42.148;24.744;2022-08-25T14:37:11;20.83;;;3.42;;
48951;SDS011;34758;42.148;24.744;2022-08-25T14:39:39;21.98;;;4.45;;
48951;SDS011;34758;42.148;24.744;2022-08-25T14:42:08;18.13;;;3.60;;
48951;SDS011;34758;42.148;24.744;2022-08-25T14:44:37;19.50;;;3.90;;
48951;SDS011;34758;42.148;24.744;2022-08-25T14:47:04;16.92;;;4.05;;
48951;SDS011;34758;42.148;24.744;2022-08-25T14:49:33;16.63;;;4.03;;
48951;SDS011;34758;42.148;24.744;2022-08-25T14:52:03;15.82;;;3.47;;
48951;SDS011;34758;42.148;24.744;2022-08-25T14:54:33;14.18;;;4.25;;
48951;SDS011;34758;42.148;24.744;2022-08-25T14:57:00;19.30;;;4.95;;
48951;SDS011;34758;42.148;24.744;2022-08-25T14:59:29;16.95;;;4.40;;
48951;SDS011;34758;42.148;24.744;2022-08-25T15:01:57;25.27;;;4.35;;
48951;SDS011;34758;42.148;24.744;2022-08-25T15:04:24;12.68;;;4.22;;
48951;SDS011;34758;42.148;24.744;2022-08-25T15:06:53;17.02;;;4.68;;
48951;SDS011;34758;42.148;24.744;2022-08-25T15:09:22;20.80;;;4.53;;
48951;SDS011;34758;42.148;24.744;2022-08-25T15:11:50;16.17;;;3.67;;